Time;durP1;ratioP1;P1;durP2;ratioP2;P2;SDS_P1;SDS_P2;PMS_P1;PMS_P2;Temp;Humidity;BMP_temperature;BMP_pressure;BME280_temperature;BME280_humidity;BME280_pressure;Samples;Min_cycle;Max_cycle;Signal;HPM_P1;HPM_P2
2021/08/11 00:01:25;;;;;;;0.70;0.60;;;14.90;58.20;;;;;;5051266;28;20642;-43
2021/08/11 00:03:56;;;;;;;0.60;0.60;;;14.90;58.20;;;;;;5053994;28;20203;-43
2021/08/11 00:06:26;;;;;;;1.23;0.85;;;14.90;58.20;;;;;;5032816;28;20310;-48
2021/08/11 00:09:02;;;;;;;1.60;0.75;;;15.00;58.20;;;;;;5033300;28;20235;-48
2021/08/11 00:11:32;;;;;;;0.60;0.60;;;15.00;58.20;;;;;;5033511;28;20328;-48
2021/08/11 00:14:02;;;;;;;0.70;0.70;;;15.10;58.20;;;;;;5032802;28;20311;-45
2021/08/11 00:16:33;;;;;;;0.50;0.50;;;15.10;58.20;;;;;;5033706;28;20252;-50
2021/08/11 00:19:03;;;;;;;0.77;0.60;;;15.20;58.20;;;;;;5039927;28;20611;-45
2021/08/11 00:21:34;;;;;;;0.68;0.63;;;15.20;58.30;;;;;;5032658;28;20196;-44
2021/08/11 00:24:06;;;;;;;1.23;0.57;;;15.30;58.30;;;;;;5033209;28;20196;-51
2021/08/11 00:26:37;;;;;;;1.02;0.60;;;15.30;58.20;;;;;;5032633;28;20366;-45
2021/08/11 00:29:07;;;;;;;0.50;0.50;;;15.40;58.20;;;;;;5033229;28;20284;-44
2021/08/11 00:31:38;;;;;;;0.77;0.77;;;15.40;58.30;;;;;;5033279;28;20231;-48
2021/08/11 00:34:08;;;;;;;0.60;0.47;;;15.50;58.20;;;;;;5035841;28;20256;-50
2021/08/11 00:36:39;;;;;;;0.50;0.50;;;15.60;58.00;;;;;;5032632;28;20663;-51
2021/08/11 00:39:11;;;;;;;0.57;0.57;;;15.60;57.90;;;;;;5032895;28;20635;-49
2021/08/11 00:41:44;;;;;;;0.40;0.40;;;15.70;57.90;;;;;;5032204;28;20659;-53
2021/08/11 00:44:15;;;;;;;0.60;0.60;;;15.70;57.90;;;;;;5032980;28;20196;-55
2021/08/11 00:46:45;;;;;;;0.40;0.40;;;15.80;57.80;;;;;;5032780;28;20255;-54
2021/08/11 00:49:17;;;;;;;0.75;0.50;;;15.90;57.80;;;;;;5039736;28;20247;-44
2021/08/11 00:51:47;;;;;;;0.50;0.50;;;15.90;57.70;;;;;;5052671;28;20296;-49
2021/08/11 00:54:19;;;;;;;0.60;0.60;;;16.00;58.20;;;;;;5052298;28;20227;-47
2021/08/11 00:56:50;;;;;;;0.63;0.47;;;16.00;57.50;;;;;;5049494;28;20468;-45
2021/08/11 00:59:21;;;;;;;0.50;0.50;;;16.10;57.40;;;;;;5052366;28;20664;-46
2021/08/11 01:01:51;;;;;;;1.10;0.52;;;16.10;57.40;;;;;;5052949;28;20606;-45
2021/08/11 01:04:21;;;;;;;0.50;0.50;;;16.20;57.30;;;;;;5052714;28;20250;-46
2021/08/11 01:09:41;;;;;;;0.93;0.60;;;16.30;57.20;;;;;;5051957;28;20289;-47
2021/08/11 01:12:12;;;;;;;0.40;0.40;;;16.40;57.10;;;;;;5053230;28;20242;-50
2021/08/11 01:14:42;;;;;;;0.50;0.50;;;16.40;57.00;;;;;;5052477;28;20258;-47
2021/08/11 01:17:13;;;;;;;0.50;0.50;;;16.50;57.10;;;;;;5052261;28;20338;-44
2021/08/11 01:19:43;;;;;;;0.43;0.43;;;16.50;56.90;;;;;;5047674;28;20230;-48
2021/08/11 01:22:16;;;;;;;2.47;0.60;;;16.50;56.80;;;;;;5032274;28;20236;-47
2021/08/11 01:24:51;;;;;;;0.52;0.52;;;16.60;56.70;;;;;;5032382;28;20203;-48
2021/08/11 01:27:42;;;;;;;0.40;0.40;;;16.60;56.70;;;;;;5031863;28;20588;-53
2021/08/11 01:30:18;;;;;;;0.60;0.60;;;16.70;56.70;;;;;;5004790;28;20243;-52
2021/08/11 01:33:13;;;;;;;0.40;0.40;;;16.70;56.60;;;;;;5031547;28;20577;-50
2021/08/11 01:35:47;;;;;;;0.50;0.50;;;16.80;56.60;;;;;;5017370;28;20762;-51
2021/08/11 01:38:19;;;;;;;0.50;0.40;;;16.90;56.60;;;;;;5031620;28;20637;-52
2021/08/11 01:40:52;;;;;;;0.40;0.40;;;16.90;56.60;;;;;;5032148;28;20227;-44
2021/08/11 01:43:22;;;;;;;0.45;0.45;;;16.90;56.50;;;;;;5032526;28;20846;-44
2021/08/11 01:45:53;;;;;;;1.25;0.38;;;17.00;56.50;;;;;;5032220;28;20259;-48
2021/08/11 01:48:26;;;;;;;0.40;0.40;;;17.00;56.40;;;;;;5032461;28;20240;-47
2021/08/11 01:50:58;;;;;;;0.85;0.50;;;17.10;56.40;;;;;;5046755;28;20919;-44
2021/08/11 01:53:29;;;;;;;0.50;0.43;;;17.10;56.30;;;;;;5051851;28;20694;-47
2021/08/11 01:56:00;;;;;;;0.40;0.40;;;17.20;56.30;;;;;;5052476;28;20211;-44
2021/08/11 01:58:31;;;;;;;0.30;0.30;;;17.30;56.30;;;;;;5052346;28;20685;-44
2021/08/11 02:01:02;;;;;;;0.47;0.47;;;17.30;56.20;;;;;;5051988;28;20202;-47
2021/08/11 02:03:32;;;;;;;0.50;0.50;;;17.30;56.10;;;;;;5052207;28;20227;-49
2021/08/11 02:06:05;;;;;;;0.43;0.40;;;17.40;56.00;;;;;;5051470;28;20256;-44
2021/08/11 02:08:35;;;;;;;1.88;0.50;;;17.40;56.00;;;;;;5051804;28;20196;-52
2021/08/11 02:11:05;;;;;;;0.40;0.40;;;17.50;55.90;;;;;;5052165;28;20223;-49
2021/08/11 02:13:36;;;;;;;0.43;0.38;;;17.50;55.90;;;;;;5050212;28;20312;-44
2021/08/11 02:16:07;;;;;;;0.50;0.50;;;17.60;55.80;;;;;;5048430;28;20251;-56
2021/08/11 02:18:37;;;;;;;0.40;0.40;;;17.60;55.70;;;;;;5051243;28;20234;-47
2021/08/11 02:21:09;;;;;;;0.40;0.40;;;17.70;55.60;;;;;;5051086;28;20250;-57
2021/08/11 02:23:40;;;;;;;0.40;0.40;;;17.70;55.60;;;;;;5050950;28;20231;-55
2021/08/11 02:26:15;;;;;;;0.50;0.50;;;17.70;55.50;;;;;;5047715;28;20694;-47
2021/08/11 02:28:51;;;;;;;0.43;0.43;;;17.80;55.50;;;;;;5050750;28;20199;-55
2021/08/11 02:31:26;;;;;;;2.50;0.50;;;17.80;55.50;;;;;;5051231;28;20227;-50
2021/08/11 02:33:58;;;;;;;0.40;0.40;;;17.90;55.40;;;;;;5050578;28;20269;-49
2021/08/11 02:36:32;;;;;;;0.40;0.40;;;17.90;55.40;;;;;;5049378;28;20687;-53
2021/08/11 02:39:05;;;;;;;0.60;0.50;;;18.00;55.30;;;;;;5030767;28;20659;-48
2021/08/11 02:41:38;;;;;;;0.40;0.40;;;18.10;55.30;;;;;;5030713;28;20231;-52
2021/08/11 02:44:10;;;;;;;0.90;0.30;;;18.10;55.20;;;;;;5029493;28;20235;-47
2021/08/11 02:46:41;;;;;;;0.65;0.63;;;18.10;55.20;;;;;;5031045;28;20258;-50
2021/08/11 02:49:13;;;;;;;0.50;0.50;;;18.20;55.20;;;;;;5041825;23;20282;-48
2021/08/11 02:51:45;;;;;;;0.50;0.50;;;18.20;55.10;;;;;;5027383;28;20710;-47
2021/08/11 02:54:17;;;;;;;0.40;0.40;;;18.30;55.10;;;;;;5031130;28;20311;-51
2021/08/11 02:56:47;;;;;;;0.40;0.40;;;18.30;55.10;;;;;;5030054;28;20703;-49
2021/08/11 02:59:17;;;;;;;0.40;0.40;;;18.40;55.10;;;;;;5029749;28;20196;-50
2021/08/11 03:01:48;;;;;;;0.30;0.30;;;18.40;55.10;;;;;;5029292;28;20297;-54
2021/08/11 03:04:19;;;;;;;0.47;0.47;;;18.50;55.10;;;;;;5030286;28;20200;-53
2021/08/11 03:06:51;;;;;;;0.52;0.52;;;18.50;55.00;;;;;;5028562;28;20309;-50
2021/08/11 03:09:22;;;;;;;0.50;0.50;;;18.60;55.00;;;;;;5029695;28;20228;-54
2021/08/11 03:11:53;;;;;;;0.60;0.47;;;18.60;54.80;;;;;;5030157;28;20200;-52
2021/08/11 03:14:23;;;;;;;0.40;0.40;;;18.70;54.80;;;;;;5029959;28;20667;-51
2021/08/11 03:16:54;;;;;;;0.60;0.60;;;18.70;54.80;;;;;;5029526;28;20313;-50
2021/08/11 03:19:24;;;;;;;0.85;0.65;;;18.70;54.80;;;;;;5030520;28;20727;-55
2021/08/11 03:22:03;;;;;;;0.57;0.57;;;18.80;54.80;;;;;;5031135;28;20238;-51
2021/08/11 03:24:34;;;;;;;0.50;0.50;;;18.80;54.60;;;;;;5029623;28;20656;-54
2021/08/11 03:27:04;;;;;;;0.50;0.50;;;18.90;54.70;;;;;;5030692;28;20255;-49
2021/08/11 03:29:39;;;;;;;0.50;0.50;;;18.90;54.60;;;;;;5030181;28;20668;-52
2021/08/11 03:32:10;;;;;;;0.88;0.43;;;18.90;55.20;;;;;;5028602;28;20249;-50
2021/08/11 03:34:40;;;;;;;0.40;0.40;;;19.00;54.60;;;;;;5030798;28;20305;-54
2021/08/11 03:37:16;;;;;;;0.43;0.43;;;19.00;54.60;;;;;;5030759;28;20249;-55
2021/08/11 03:39:46;;;;;;;0.50;0.50;;;19.10;54.50;;;;;;5030897;28;20199;-57
2021/08/11 03:42:17;;;;;;;0.50;0.50;;;19.10;54.60;;;;;;5030537;28;20423;-51
2021/08/11 03:44:47;;;;;;;0.50;0.50;;;19.10;54.50;;;;;;5030533;28;20228;-51
2021/08/11 03:47:17;;;;;;;0.50;0.50;;;19.20;54.50;;;;;;5029991;28;20251;-58
2021/08/11 03:49:50;;;;;;;0.57;0.50;;;19.20;54.50;;;;;;5041502;23;20320;-45
2021/08/11 03:52:22;;;;;;;0.68;0.47;;;19.20;54.50;;;;;;5030657;28;20211;-46
2021/08/11 03:54:53;;;;;;;0.60;0.60;;;19.30;54.50;;;;;;5031009;28;20271;-50
2021/08/11 03:57:23;;;;;;;0.57;0.57;;;19.30;54.40;;;;;;5034739;28;20750;-45
2021/08/11 03:59:54;;;;;;;0.40;0.40;;;19.30;54.30;;;;;;5033677;28;20711;-52
2021/08/11 04:02:24;;;;;;;1.00;0.52;;;19.40;54.40;;;;;;5033987;28;20254;-48
2021/08/11 04:04:54;;;;;;;0.43;0.43;;;19.40;54.30;;;;;;5034184;28;20239;-45
2021/08/11 04:07:27;;;;;;;0.55;0.50;;;19.40;54.20;;;;;;5033995;28;20324;-47
2021/08/11 04:09:57;;;;;;;0.40;0.40;;;19.50;54.20;;;;;;5034115;28;20236;-45
2021/08/11 04:12:28;;;;;;;0.65;0.60;;;19.50;54.10;;;;;;5031814;28;20223;-48
2021/08/11 04:14:58;;;;;;;0.95;0.50;;;19.50;54.00;;;;;;5034249;28;20259;-50
2021/08/11 04:17:28;;;;;;;0.50;0.50;;;19.60;54.00;;;;;;5033683;28;20270;-46
2021/08/11 04:19:59;;;;;;;0.40;0.40;;;19.60;54.00;;;;;;5032596;28;20515;-52
2021/08/11 04:22:31;;;;;;;0.47;0.47;;;19.70;53.90;;;;;;5033137;28;20270;-54
2021/08/11 04:25:02;;;;;;;0.65;0.65;;;19.70;53.90;;;;;;5033140;28;20197;-42
2021/08/11 04:27:32;;;;;;;0.75;0.60;;;19.70;53.80;;;;;;5032743;28;20256;-50
2021/08/11 04:30:02;;;;;;;0.50;0.50;;;19.70;53.80;;;;;;5033071;28;20246;-45
2021/08/11 04:32:36;;;;;;;0.60;0.60;;;19.80;53.80;;;;;;5032827;28;20223;-47
2021/08/11 04:35:08;;;;;;;0.90;0.75;;;19.80;53.80;;;;;;5032719;28;20219;-45
2021/08/11 04:37:41;;;;;;;0.50;0.50;;;19.80;53.90;;;;;;5033110;28;20196;-45
2021/08/11 04:40:12;;;;;;;0.70;0.70;;;19.90;53.90;;;;;;5032992;28;20239;-46
2021/08/11 04:42:42;;;;;;;0.98;0.80;;;19.90;54.00;;;;;;5033550;28;20277;-42
2021/08/11 04:45:13;;;;;;;1.67;0.90;;;19.90;53.90;;;;;;5032527;28;20200;-48
2021/08/11 04:47:43;;;;;;;2.05;1.05;;;19.90;53.90;;;;;;5031871;28;20238;-42
2021/08/11 04:50:14;;;;;;;1.63;0.85;;;19.90;54.00;;;;;;5032910;28;20235;-42
2021/08/11 04:52:46;;;;;;;2.30;1.00;;;19.90;53.90;;;;;;5033335;28;20687;-51
2021/08/11 04:55:17;;;;;;;1.77;1.10;;;19.90;53.80;;;;;;5032520;28;20325;-53
2021/08/11 04:57:47;;;;;;;0.90;0.70;;;19.90;53.70;;;;;;5031201;28;20344;-56
2021/08/11 05:00:18;;;;;;;1.48;1.00;;;20.00;53.80;;;;;;5031725;28;20192;-52
2021/08/11 05:02:49;;;;;;;1.05;0.90;;;19.90;53.80;;;;;;5032036;28;20196;-50
2021/08/11 05:05:19;;;;;;;1.33;0.80;;;20.00;53.80;;;;;;5033056;28;20200;-48
2021/08/11 05:07:53;;;;;;;2.22;1.00;;;20.00;53.80;;;;;;5031773;28;20192;-52
2021/08/11 05:10:23;;;;;;;1.45;0.95;;;20.00;53.80;;;;;;5031985;28;20604;-51
2021/08/11 05:12:54;;;;;;;1.67;1.00;;;20.00;53.70;;;;;;5032098;28;20664;-42
2021/08/11 05:15:24;;;;;;;1.38;0.95;;;20.00;53.60;;;;;;5031611;28;20751;-52
2021/08/11 05:17:55;;;;;;;3.38;1.27;;;19.90;53.60;;;;;;5032547;28;20196;-50
2021/08/11 05:20:25;;;;;;;1.40;1.17;;;19.90;53.70;;;;;;5031455;28;20239;-50
2021/08/11 05:22:57;;;;;;;1.55;1.10;;;19.90;53.90;;;;;;5030619;28;20235;-49
2021/08/11 05:25:28;;;;;;;2.22;1.10;;;19.90;54.10;;;;;;5031800;28;20236;-52
2021/08/11 05:27:58;;;;;;;0.88;0.85;;;19.90;54.10;;;;;;5032361;28;20232;-51
2021/08/11 05:30:29;;;;;;;0.90;0.90;;;19.90;54.20;;;;;;5031149;28;20231;-44
2021/08/11 05:32:59;;;;;;;1.45;1.20;;;19.80;54.30;;;;;;5031911;28;20236;-44
2021/08/11 05:35:30;;;;;;;0.93;0.82;;;19.80;54.40;;;;;;5031615;28;20266;-46
2021/08/11 05:38:02;;;;;;;1.05;0.85;;;19.80;54.40;;;;;;5032316;28;20238;-52
2021/08/11 05:40:33;;;;;;;1.27;1.00;;;19.70;54.50;;;;;;5032503;28;20192;-50
2021/08/11 05:43:03;;;;;;;1.55;1.20;;;19.70;54.60;;;;;;5031173;28;20281;-57
2021/08/11 05:45:34;;;;;;;2.30;1.20;;;19.70;54.80;;;;;;5031731;28;20216;-50
2021/08/11 05:48:04;;;;;;;2.63;1.10;;;19.70;54.80;;;;;;5031503;28;20231;-47
2021/08/11 05:50:34;;;;;;;3.05;1.05;;;19.60;54.90;;;;;;5032064;28;20235;-48
2021/08/11 05:53:07;;;;;;;2.13;1.30;;;19.60;55.00;;;;;;5031203;28;20228;-52
2021/08/11 05:55:37;;;;;;;3.25;1.35;;;19.60;55.10;;;;;;5030720;28;20263;-47
2021/08/11 05:58:08;;;;;;;1.50;1.20;;;19.60;55.10;;;;;;5031797;28;20227;-52
2021/08/11 06:00:38;;;;;;;2.33;1.60;;;19.50;55.10;;;;;;5031443;28;20262;-49
2021/08/11 06:03:08;;;;;;;1.95;1.58;;;19.50;55.20;;;;;;5031511;28;20232;-51
2021/08/11 06:05:39;;;;;;;4.18;1.63;;;19.40;55.20;;;;;;5031818;28;20609;-51
2021/08/11 06:08:12;;;;;;;2.28;1.50;;;19.40;55.30;;;;;;5031523;28;20196;-47
2021/08/11 06:10:42;;;;;;;2.20;1.67;;;19.40;55.30;;;;;;5030854;28;20196;-47
2021/08/11 06:13:13;;;;;;;2.70;1.63;;;19.30;55.30;;;;;;5031200;28;20289;-51
2021/08/11 06:15:45;;;;;;;2.10;1.70;;;19.30;55.40;;;;;;5030572;28;20270;-47
2021/08/11 06:18:15;;;;;;;2.53;1.42;;;19.30;55.40;;;;;;5031224;28;20228;-49
2021/08/11 06:20:47;;;;;;;4.00;2.00;;;19.20;55.40;;;;;;5028593;28;20203;-47
2021/08/11 06:23:19;;;;;;;3.20;1.73;;;19.20;55.60;;;;;;5028170;28;20627;-47
2021/08/11 06:25:50;;;;;;;1.95;1.50;;;19.20;55.80;;;;;;5026831;28;20259;-54
2021/08/11 06:28:20;;;;;;;1.60;1.42;;;19.10;55.70;;;;;;5030376;28;20234;-49
2021/08/11 06:30:50;;;;;;;2.00;1.60;;;19.10;55.80;;;;;;5028991;28;20235;-57
2021/08/11 06:33:21;;;;;;;2.22;1.67;;;19.10;55.80;;;;;;5030707;28;20258;-56
2021/08/11 06:35:51;;;;;;;1.73;1.50;;;19.00;55.70;;;;;;5031487;28;20256;-56
2021/08/11 06:38:24;;;;;;;1.83;1.58;;;19.00;55.70;;;;;;5031012;28;20227;-53
2021/08/11 06:40:54;;;;;;;2.08;1.63;;;19.00;55.80;;;;;;5031279;28;20293;-52
2021/08/11 06:43:24;;;;;;;1.52;1.42;;;19.00;55.90;;;;;;5030879;28;20231;-50
2021/08/11 06:45:55;;;;;;;3.50;1.70;;;18.90;55.80;;;;;;5030377;28;20303;-47
2021/08/11 06:48:25;;;;;;;2.65;1.50;;;18.90;55.80;;;;;;5030969;28;20196;-53
2021/08/11 06:50:57;;;;;;;2.95;2.00;;;18.80;55.80;;;;;;5031080;28;20243;-55
2021/08/11 06:53:29;;;;;;;2.55;1.80;;;18.80;55.90;;;;;;5029555;28;20684;-50
2021/08/11 06:55:59;;;;;;;1.70;1.58;;;18.80;56.10;;;;;;5030750;28;20310;-47
2021/08/11 06:58:30;;;;;;;2.45;1.92;;;18.70;56.20;;;;;;5029393;28;20196;-46
2021/08/11 07:01:01;;;;;;;2.70;1.92;;;18.70;56.20;;;;;;5030000;28;20231;-57
2021/08/11 07:03:31;;;;;;;2.47;2.15;;;18.70;56.30;;;;;;5031468;28;20202;-56
2021/08/11 07:06:02;;;;;;;2.70;2.22;;;18.70;56.30;;;;;;5029730;28;20212;-52
2021/08/11 07:08:34;;;;;;;2.22;1.95;;;18.60;56.30;;;;;;5031205;28;20726;-51
2021/08/11 07:11:04;;;;;;;1.90;1.75;;;18.60;56.30;;;;;;5030786;28;20239;-51
2021/08/11 07:13:35;;;;;;;2.45;2.00;;;18.60;56.30;;;;;;5023604;28;20286;-50
2021/08/11 07:16:05;;;;;;;3.97;1.80;;;18.50;56.30;;;;;;5030835;28;20282;-50
2021/08/11 07:18:36;;;;;;;2.47;1.95;;;18.50;56.90;;;;;;5031025;28;20246;-54
2021/08/11 07:21:06;;;;;;;2.70;2.00;;;18.50;56.20;;;;;;5030454;28;20200;-49
2021/08/11 07:23:38;;;;;;;3.00;1.92;;;18.50;56.20;;;;;;5030720;28;20242;-50
2021/08/11 07:26:10;;;;;;;2.85;1.70;;;18.40;56.20;;;;;;5031010;28;20254;-55
2021/08/11 07:28:41;;;;;;;2.30;1.80;;;18.40;56.30;;;;;;5030983;28;20282;-49
2021/08/11 07:31:11;;;;;;;2.42;1.90;;;18.30;56.20;;;;;;5033598;28;20748;-55
2021/08/11 07:33:41;;;;;;;2.17;1.70;;;18.30;56.30;;;;;;5034620;28;20708;-55
2021/08/11 07:36:12;;;;;;;1.95;1.75;;;18.20;56.40;;;;;;5034151;28;20704;-53
2021/08/11 07:38:44;;;;;;;2.35;1.92;;;18.30;56.60;;;;;;5034415;28;20676;-51
2021/08/11 07:41:15;;;;;;;1.95;1.73;;;18.20;56.50;;;;;;5035209;28;20672;-49
2021/08/11 07:43:45;;;;;;;3.25;2.15;;;18.20;56.60;;;;;;5034713;28;20193;-48
2021/08/11 07:46:16;;;;;;;2.58;1.95;;;18.20;56.60;;;;;;5035142;28;20704;-55
2021/08/11 07:48:47;;;;;;;2.00;1.80;;;18.20;56.60;;;;;;5034951;28;20290;-54
2021/08/11 07:51:17;;;;;;;2.83;2.15;;;18.10;56.60;;;;;;5035046;28;20239;-52
2021/08/11 07:53:50;;;;;;;1.80;1.70;;;18.10;56.60;;;;;;5034726;28;20236;-54
2021/08/11 07:56:20;;;;;;;2.03;1.80;;;18.10;56.60;;;;;;5034433;28;20275;-53
2021/08/11 07:58:51;;;;;;;1.70;1.60;;;18.00;56.60;;;;;;5034527;28;20200;-54
2021/08/11 08:01:21;;;;;;;1.80;1.70;;;18.00;56.70;;;;;;5034714;28;20231;-52
2021/08/11 08:03:51;;;;;;;2.38;2.13;;;18.00;56.70;;;;;;5033877;28;20239;-55
2021/08/11 08:06:22;;;;;;;2.38;1.80;;;18.00;56.90;;;;;;5034299;28;20216;-47
2021/08/11 08:08:54;;;;;;;2.03;1.75;;;17.90;56.90;;;;;;5034383;28;20200;-51
2021/08/11 08:11:25;;;;;;;3.25;1.98;;;17.90;57.00;;;;;;5034283;28;20232;-48
2021/08/11 08:13:55;;;;;;;2.38;2.10;;;17.90;57.10;;;;;;5033751;28;20613;-52
2021/08/11 08:16:26;;;;;;;1.88;1.77;;;17.80;57.00;;;;;;5033863;28;20708;-52
2021/08/11 08:18:56;;;;;;;2.28;1.73;;;17.80;57.10;;;;;;5034491;28;20200;-55
2021/08/11 08:21:26;;;;;;;2.58;1.98;;;17.80;57.10;;;;;;5034136;28;20622;-54
2021/08/11 08:23:59;;;;;;;2.22;2.03;;;17.80;57.10;;;;;;5034461;28;20608;-50
2021/08/11 08:26:29;;;;;;;2.42;1.77;;;17.80;57.10;;;;;;5033389;28;20716;-52
2021/08/11 08:29:00;;;;;;;1.60;1.50;;;17.80;57.10;;;;;;5033161;28;20672;-49
2021/08/11 08:31:30;;;;;;;2.88;1.75;;;17.80;57.20;;;;;;5033967;28;20672;-53
2021/08/11 08:34:00;;;;;;;2.67;1.77;;;17.70;57.20;;;;;;5033785;28;20439;-49
2021/08/11 08:36:32;;;;;;;2.10;1.90;;;17.70;57.20;;;;;;5033367;28;20263;-49
2021/08/11 08:39:04;;;;;;;3.03;2.10;;;17.70;57.20;;;;;;5033428;28;20208;-53
2021/08/11 08:41:34;;;;;;;2.00;1.70;;;17.70;57.20;;;;;;5032293;28;20200;-52
2021/08/11 08:44:05;;;;;;;3.40;1.83;;;17.70;57.30;;;;;;5033671;28;20609;-50
2021/08/11 08:46:35;;;;;;;3.13;1.95;;;17.60;57.30;;;;;;5033729;28;20251;-53
2021/08/11 08:49:06;;;;;;;1.92;1.80;;;17.60;57.30;;;;;;5041109;23;20231;-54
2021/08/11 08:51:38;;;;;;;1.92;1.83;;;17.60;57.30;;;;;;5013797;28;20200;-54
2021/08/11 08:54:10;;;;;;;2.25;1.88;;;17.50;57.20;;;;;;5013777;28;20200;-53
2021/08/11 08:56:41;;;;;;;2.92;1.85;;;17.50;57.30;;;;;;5013397;28;20318;-52
2021/08/11 08:59:11;;;;;;;1.92;1.73;;;17.50;57.30;;;;;;5013538;28;20675;-54
2021/08/11 09:01:42;;;;;;;1.90;1.70;;;17.50;57.30;;;;;;5013028;28;20673;-56
2021/08/11 09:04:12;;;;;;;1.90;1.70;;;17.50;58.00;;;;;;5012677;28;20212;-50
2021/08/11 09:06:43;;;;;;;2.40;1.90;;;17.50;57.50;;;;;;5010442;28;20318;-56
2021/08/11 09:09:15;;;;;;;2.13;1.92;;;17.40;57.50;;;;;;5012309;28;20233;-58
2021/08/11 09:11:46;;;;;;;2.10;1.77;;;17.40;57.50;;;;;;5012813;28;20739;-54
2021/08/11 09:14:23;;;;;;;2.10;1.90;;;17.40;57.60;;;;;;5012533;28;20275;-54
2021/08/11 09:16:54;;;;;;;2.10;1.90;;;17.40;57.60;;;;;;5012629;28;20709;-51
2021/08/11 09:19:24;;;;;;;3.53;1.90;;;17.40;57.60;;;;;;5012762;28;20243;-55
2021/08/11 09:22:02;;;;;;;1.80;1.70;;;17.40;57.60;;;;;;5012168;28;20259;-51
2021/08/11 09:24:36;;;;;;;2.08;1.75;;;17.30;57.60;;;;;;5013111;28;20251;-50
2021/08/11 09:27:23;;;;;;;2.33;1.98;;;17.30;57.60;;;;;;5011932;28;20220;-56
2021/08/11 09:30:08;;;;;;;1.98;1.70;;;17.30;57.70;;;;;;5012282;28;20534;-55
2021/08/11 09:32:55;;;;;;;3.50;2.00;;;17.30;57.70;;;;;;5011020;28;20201;-52
2021/08/11 09:35:27;;;;;;;1.80;1.70;;;17.20;57.70;;;;;;5012323;28;20196;-53
2021/08/11 09:37:57;;;;;;;2.35;2.15;;;17.20;57.70;;;;;;5012301;28;20313;-54
2021/08/11 09:40:30;;;;;;;2.13;1.77;;;17.20;57.70;;;;;;5012142;28;20228;-47
2021/08/11 09:43:02;;;;;;;2.03;1.70;;;17.20;57.70;;;;;;5011600;28;20565;-47
2021/08/11 09:45:45;;;;;;;1.98;1.70;;;17.20;57.70;;;;;;5012577;28;20225;-48
2021/08/11 09:48:15;;;;;;;2.03;1.83;;;17.10;57.70;;;;;;5012301;28;20247;-46
2021/08/11 09:50:47;;;;;;;2.85;1.95;;;17.10;57.70;;;;;;5023066;23;20310;-48
2021/08/11 09:53:23;;;;;;;1.52;1.33;;;17.10;57.70;;;;;;5011243;28;20274;-47
2021/08/11 09:56:05;;;;;;;1.80;1.70;;;17.10;57.80;;;;;;5012098;28;20227;-47
2021/08/11 09:58:37;;;;;;;2.78;2.05;;;17.10;57.80;;;;;;5012270;28;20201;-49
2021/08/11 10:01:08;;;;;;;2.03;1.92;;;17.00;57.80;;;;;;5011501;28;20207;-46
2021/08/11 10:03:38;;;;;;;1.90;1.67;;;17.00;57.80;;;;;;5012247;28;20690;-47
2021/08/11 10:06:09;;;;;;;2.08;1.80;;;17.00;57.90;;;;;;5011649;28;20255;-48
2021/08/11 10:08:39;;;;;;;2.15;1.60;;;16.90;57.90;;;;;;5011717;28;20255;-47
2021/08/11 10:11:11;;;;;;;2.67;2.00;;;17.00;57.90;;;;;;5010704;28;20712;-44
2021/08/11 10:13:43;;;;;;;1.92;1.73;;;16.90;57.90;;;;;;5011957;28;20228;-50
2021/08/11 10:16:13;;;;;;;2.00;1.80;;;16.90;57.90;;;;;;5011059;28;20271;-46
2021/08/11 10:18:43;;;;;;;1.80;1.70;;;16.90;57.90;;;;;;5011487;28;20243;-49
2021/08/11 10:21:14;;;;;;;2.10;1.73;;;16.90;57.90;;;;;;5010786;28;20200;-45
2021/08/11 10:23:46;;;;;;;2.08;1.92;;;16.90;57.90;;;;;;5010314;28;20221;-47
2021/08/11 10:26:18;;;;;;;2.42;2.08;;;16.90;57.90;;;;;;5010908;28;20682;-47
2021/08/11 10:28:49;;;;;;;1.90;1.80;;;16.80;57.90;;;;;;5010552;28;20314;-49
2021/08/11 10:31:19;;;;;;;2.10;1.90;;;16.80;57.90;;;;;;5011456;28;20623;-46
2021/08/11 10:33:52;;;;;;;1.80;1.70;;;16.80;57.90;;;;;;5011236;28;20197;-44
2021/08/11 10:36:23;;;;;;;1.80;1.70;;;16.70;57.90;;;;;;5011051;28;20229;-48
2021/08/11 10:38:53;;;;;;;2.20;1.65;;;16.80;57.90;;;;;;5009999;28;20225;-45
2021/08/11 10:41:29;;;;;;;2.10;1.77;;;16.70;58.00;;;;;;5010025;28;20224;-45
2021/08/11 10:44:00;;;;;;;1.75;1.65;;;16.70;58.00;;;;;;5009575;28;20205;-48
2021/08/11 10:46:35;;;;;;;1.95;1.83;;;16.70;58.00;;;;;;5010512;28;20671;-50
2021/08/11 10:49:06;;;;;;;2.38;1.80;;;16.60;58.00;;;;;;5021539;23;20228;-52
2021/08/11 10:51:40;;;;;;;2.00;1.60;;;16.70;58.10;;;;;;4990801;28;20202;-54
2021/08/11 10:54:11;;;;;;;1.75;1.65;;;16.60;58.00;;;;;;4991512;28;20233;-49
2021/08/11 10:56:50;;;;;;;1.70;1.60;;;16.60;58.00;;;;;;4991997;28;20328;-51
2021/08/11 10:59:45;;;;;;;2.05;1.70;;;16.60;58.10;;;;;;4991878;28;20264;-51
2021/08/11 11:02:47;;;;;;;1.67;1.50;;;16.60;58.10;;;;;;4992200;28;20556;-51
2021/08/11 11:06:04;;;;;;;1.70;1.60;;;16.60;58.00;;;;;;4990850;28;20197;-52
2021/08/11 11:08:38;;;;;;;2.15;1.67;;;16.60;58.10;;;;;;4991922;28;20253;-49
2021/08/11 11:11:42;;;;;;;1.58;1.48;;;16.50;58.00;;;;;;4991516;28;20236;-55
2021/08/11 11:14:53;;;;;;;2.78;1.58;;;16.50;58.10;;;;;;4972198;28;20277;-52
2021/08/11 11:17:27;;;;;;;1.92;1.60;;;16.50;58.10;;;;;;4972593;28;20236;-50
2021/08/11 11:20:30;;;;;;;1.90;1.70;;;16.50;58.10;;;;;;4972376;28;20241;-49
2021/08/11 11:23:04;;;;;;;1.48;1.38;;;16.40;58.20;;;;;;4972207;28;20212;-47
2021/08/11 11:25:57;;;;;;;1.80;1.52;;;16.40;58.20;;;;;;4972316;28;20275;-48
2021/08/11 11:28:57;;;;;;;1.83;1.50;;;16.40;58.20;;;;;;4971828;28;20234;-49
2021/08/11 11:31:41;;;;;;;1.63;1.52;;;16.40;58.20;;;;;;4966982;28;20237;-50
2021/08/11 11:34:29;;;;;;;1.50;1.40;;;16.40;58.20;;;;;;4987602;28;20210;-48
2021/08/11 11:37:25;;;;;;;1.88;1.60;;;16.40;58.20;;;;;;4992191;28;20292;-50
2021/08/11 11:40:06;;;;;;;1.50;1.40;;;16.30;58.20;;;;;;4992055;28;20288;-47
2021/08/11 11:42:36;;;;;;;1.50;1.40;;;16.30;58.20;;;;;;4991470;28;20201;-49
2021/08/11 11:45:08;;;;;;;1.40;1.30;;;16.30;58.30;;;;;;4991683;28;20256;-50
2021/08/11 11:48:05;;;;;;;1.75;1.58;;;16.30;58.30;;;;;;4991452;28;20208;-55
2021/08/11 11:50:43;;;;;;;1.60;1.50;;;16.30;58.30;;;;;;4991801;28;20205;-48
2021/08/11 11:53:26;;;;;;;1.65;1.55;;;16.30;58.30;;;;;;4991264;28;20288;-52
2021/08/11 11:55:57;;;;;;;2.75;1.60;;;16.20;58.30;;;;;;4991210;28;20331;-48
2021/08/11 11:58:28;;;;;;;1.52;1.42;;;16.20;58.30;;;;;;4991094;28;20198;-52
2021/08/11 12:01:03;;;;;;;1.50;1.40;;;16.20;58.40;;;;;;4991202;28;20228;-48
2021/08/11 12:03:39;;;;;;;1.52;1.42;;;16.20;58.40;;;;;;4991261;28;20205;-49
2021/08/11 12:06:12;;;;;;;1.83;1.60;;;16.20;58.40;;;;;;4991092;28;20271;-47
2021/08/11 12:08:42;;;;;;;1.30;1.20;;;16.20;58.40;;;;;;4991382;28;20325;-48
2021/08/11 12:11:13;;;;;;;1.48;1.38;;;16.20;58.40;;;;;;4991244;28;20708;-52
2021/08/11 12:13:44;;;;;;;1.67;1.58;;;16.20;58.40;;;;;;4991347;28;20197;-51
2021/08/11 12:16:15;;;;;;;1.60;1.50;;;16.20;58.40;;;;;;4992582;28;20253;-47
2021/08/11 12:18:45;;;;;;;1.33;1.23;;;16.20;58.40;;;;;;4995108;28;20229;-47
2021/08/11 12:21:18;;;;;;;2.00;1.50;;;16.10;58.40;;;;;;4994720;28;20272;-47
2021/08/11 12:23:48;;;;;;;1.50;1.40;;;16.10;58.40;;;;;;4994752;28;20197;-47
2021/08/11 12:26:19;;;;;;;1.67;1.40;;;16.10;58.40;;;;;;4994610;28;20255;-51
2021/08/11 12:28:49;;;;;;;1.27;1.17;;;16.10;58.40;;;;;;4993730;28;20193;-48
2021/08/11 12:31:22;;;;;;;2.03;1.60;;;16.10;58.40;;;;;;4994963;28;20201;-48
2021/08/11 12:33:53;;;;;;;1.67;1.50;;;16.10;58.50;;;;;;4994778;28;20579;-48
2021/08/11 12:36:26;;;;;;;1.45;1.30;;;16.10;58.50;;;;;;4994767;28;20260;-49
2021/08/11 12:39:07;;;;;;;1.80;1.45;;;16.00;58.40;;;;;;4994578;28;20229;-48
2021/08/11 12:41:37;;;;;;;1.45;1.20;;;16.00;58.50;;;;;;4994161;28;20201;-51
2021/08/11 12:44:16;;;;;;;1.83;1.50;;;16.00;58.50;;;;;;4993873;28;20197;-51
2021/08/11 12:46:53;;;;;;;1.80;1.40;;;16.00;58.50;;;;;;4993891;28;20260;-49
2021/08/11 12:49:24;;;;;;;1.67;1.58;;;16.00;58.50;;;;;;5007361;23;20526;-45
2021/08/11 12:52:16;;;;;;;1.67;1.58;;;16.00;58.50;;;;;;5014034;28;20229;-45
2021/08/11 12:54:59;;;;;;;1.27;1.17;;;16.00;58.50;;;;;;5013740;28;20201;-44
2021/08/11 12:57:51;;;;;;;1.63;1.50;;;15.90;58.40;;;;;;5013077;28;20225;-47
2021/08/11 13:00:23;;;;;;;1.60;1.27;;;15.90;58.40;;;;;;5013909;28;20228;-46
2021/08/11 13:03:01;;;;;;;1.40;1.30;;;15.90;58.40;;;;;;5013650;28;20738;-45
2021/08/11 13:05:32;;;;;;;1.58;1.42;;;15.90;58.50;;;;;;5013663;28;20318;-48
2021/08/11 13:08:05;;;;;;;1.40;1.30;;;15.90;58.50;;;;;;5013874;28;20228;-46
2021/08/11 13:10:36;;;;;;;1.50;1.40;;;15.90;58.50;;;;;;5013744;28;20208;-46
2021/08/11 13:13:23;;;;;;;1.30;1.20;;;15.80;58.50;;;;;;5013274;28;20232;-48
2021/08/11 13:16:11;;;;;;;1.52;1.30;;;15.80;58.60;;;;;;5013532;28;20232;-45
2021/08/11 13:18:42;;;;;;;1.60;1.50;;;15.80;58.60;;;;;;5013392;28;20264;-47
2021/08/11 13:21:12;;;;;;;1.58;1.48;;;15.80;59.00;;;;;;5013597;28;20208;-45